sensor_id;sensor_type;location;lat;lon;timestamp;temperature;humidity
14798;DHT22;7490;63.708;20.368;2022-08-05T00:02:07;19.70;98.30
14798;DHT22;7490;63.708;20.368;2022-08-05T00:04:33;19.70;98.30
14798;DHT22;7490;63.708;20.368;2022-08-05T00:06:59;19.70;98.40
14798;DHT22;7490;63.708;20.368;2022-08-05T00:09:24;19.70;98.40
14798;DHT22;7490;63.708;20.368;2022-08-05T00:11:50;19.70;98.30
14798;DHT22;7490;63.708;20.368;2022-08-05T00:14:16;19.80;98.40
14798;DHT22;7490;63.708;20.368;2022-08-05T00:16:43;19.80;98.40
14798;DHT22;7490;63.708;20.368;2022-08-05T00:19:08;19.80;98.40
14798;DHT22;7490;63.708;20.368;2022-08-05T00:21:34;19.80;98.50
14798;DHT22;7490;63.708;20.368;2022-08-05T00:24:00;19.80;98.50
14798;DHT22;7490;63.708;20.368;2022-08-05T00:26:26;19.80;98.50
14798;DHT22;7490;63.708;20.368;2022-08-05T00:28:52;19.80;98.50
14798;DHT22;7490;63.708;20.368;2022-08-05T00:31:18;19.80;98.50
14798;DHT22;7490;63.708;20.368;2022-08-05T00:33:44;19.80;98.40
14798;DHT22;7490;63.708;20.368;2022-08-05T00:36:09;19.80;98.50
14798;DHT22;7490;63.708;20.368;2022-08-05T00:38:35;19.80;98.50
14798;DHT22;7490;63.708;20.368;2022-08-05T00:41:03;19.80;98.50
14798;DHT22;7490;63.708;20.368;2022-08-05T00:43:33;19.80;98.60
14798;DHT22;7490;63.708;20.368;2022-08-05T00:45:59;19.80;98.50
14798;DHT22;7490;63.708;20.368;2022-08-05T00:48:24;19.80;98.60
14798;DHT22;7490;63.708;20.368;2022-08-05T00:50:51;19.70;98.60
14798;DHT22;7490;63.708;20.368;2022-08-05T00:53:22;19.70;98.70
14798;DHT22;7490;63.708;20.368;2022-08-05T00:55:49;19.80;98.90
14798;DHT22;7490;63.708;20.368;2022-08-05T00:58:15;19.80;98.90
14798;DHT22;7490;63.708;20.368;2022-08-05T01:00:42;19.80;99.00
14798;DHT22;7490;63.708;20.368;2022-08-05T01:03:08;19.80;99.00
14798;DHT22;7490;63.708;20.368;2022-08-05T01:05:35;19.80;99.00
14798;DHT22;7490;63.708;20.368;2022-08-05T01:08:01;19.80;98.90
14798;DHT22;7490;63.708;20.368;2022-08-05T01:10:29;19.90;98.90
14798;DHT22;7490;63.708;20.368;2022-08-05T01:13:02;19.90;98.90
14798;DHT22;7490;63.708;20.368;2022-08-05T01:15:34;19.90;98.80
14798;DHT22;7490;63.708;20.368;2022-08-05T01:18:08;19.90;98.60
14798;DHT22;7490;63.708;20.368;2022-08-05T01:23:36;20.00;98.60
14798;DHT22;7490;63.708;20.368;2022-08-05T01:26:32;20.00;98.50
14798;DHT22;7490;63.708;20.368;2022-08-05T01:29:07;20.00;98.40
14798;DHT22;7490;63.708;20.368;2022-08-05T01:31:57;20.00;98.40
14798;DHT22;7490;63.708;20.368;2022-08-05T01:34:46;20.00;98.30
14798;DHT22;7490;63.708;20.368;2022-08-05T01:40:04;20.00;98.20
14798;DHT22;7490;63.708;20.368;2022-08-05T01:42:31;20.00;98.20
14798;DHT22;7490;63.708;20.368;2022-08-05T01:45:00;20.00;98.30
14798;DHT22;7490;63.708;20.368;2022-08-05T01:47:27;20.00;98.30
14798;DHT22;7490;63.708;20.368;2022-08-05T01:49:56;19.90;98.30
14798;DHT22;7490;63.708;20.368;2022-08-05T01:52:24;19.90;98.50
14798;DHT22;7490;63.708;20.368;2022-08-05T01:54:54;19.90;98.60
14798;DHT22;7490;63.708;20.368;2022-08-05T01:57:32;19.90;98.80
14798;DHT22;7490;63.708;20.368;2022-08-05T02:00:02;19.90;99.00
14798;DHT22;7490;63.708;20.368;2022-08-05T02:02:30;19.90;99.10
14798;DHT22;7490;63.708;20.368;2022-08-05T02:05:00;19.90;99.30
14798;DHT22;7490;63.708;20.368;2022-08-05T02:07:26;19.90;99.50
14798;DHT22;7490;63.708;20.368;2022-08-05T02:09:52;19.90;99.60
14798;DHT22;7490;63.708;20.368;2022-08-05T02:15:11;19.90;99.90
14798;DHT22;7490;63.708;20.368;2022-08-05T02:17:44;19.90;99.90
14798;DHT22;7490;63.708;20.368;2022-08-05T02:20:18;20.00;99.90
14798;DHT22;7490;63.708;20.368;2022-08-05T02:22:47;20.00;99.90
14798;DHT22;7490;63.708;20.368;2022-08-05T02:25:21;20.00;99.90
14798;DHT22;7490;63.708;20.368;2022-08-05T02:27:50;20.00;99.90
14798;DHT22;7490;63.708;20.368;2022-08-05T02:30:16;20.00;99.90
14798;DHT22;7490;63.708;20.368;2022-08-05T02:32:46;20.00;99.90
14798;DHT22;7490;63.708;20.368;2022-08-05T02:35:18;19.90;99.90
14798;DHT22;7490;63.708;20.368;2022-08-05T02:37:45;19.90;99.90
14798;DHT22;7490;63.708;20.368;2022-08-05T02:40:13;20.00;99.90
14798;DHT22;7490;63.708;20.368;2022-08-05T02:42:40;19.90;99.90
14798;DHT22;7490;63.708;20.368;2022-08-05T02:45:08;19.90;99.90
14798;DHT22;7490;63.708;20.368;2022-08-05T02:47:35;19.90;99.90
14798;DHT22;7490;63.708;20.368;2022-08-05T02:50:03;19.90;99.90
14798;DHT22;7490;63.708;20.368;2022-08-05T02:52:30;19.90;99.90
14798;DHT22;7490;63.708;20.368;2022-08-05T02:55:01;19.90;99.90
14798;DHT22;7490;63.708;20.368;2022-08-05T02:57:27;20.00;99.90
14798;DHT22;7490;63.708;20.368;2022-08-05T02:59:53;19.90;99.90
14798;DHT22;7490;63.708;20.368;2022-08-05T03:02:23;20.00;99.90
14798;DHT22;7490;63.708;20.368;2022-08-05T03:04:51;20.00;99.90
14798;DHT22;7490;63.708;20.368;2022-08-05T03:07:18;20.00;99.90
14798;DHT22;7490;63.708;20.368;2022-08-05T03:09:44;20.10;99.90
14798;DHT22;7490;63.708;20.368;2022-08-05T03:12:32;20.10;99.90
14798;DHT22;7490;63.708;20.368;2022-08-05T03:14:58;20.10;99.90
14798;DHT22;7490;63.708;20.368;2022-08-05T03:17:23;20.10;99.90
14798;DHT22;7490;63.708;20.368;2022-08-05T03:19:49;20.10;99.90
14798;DHT22;7490;63.708;20.368;2022-08-05T03:22:15;20.10;99.90
14798;DHT22;7490;63.708;20.368;2022-08-05T03:24:42;20.20;99.90
14798;DHT22;7490;63.708;20.368;2022-08-05T03:27:09;20.30;99.90
14798;DHT22;7490;63.708;20.368;2022-08-05T03:29:35;20.40;99.90
14798;DHT22;7490;63.708;20.368;2022-08-05T03:32:02;20.40;99.70
14798;DHT22;7490;63.708;20.368;2022-08-05T03:34:28;20.50;99.60
14798;DHT22;7490;63.708;20.368;2022-08-05T03:36:54;20.50;99.50
14798;DHT22;7490;63.708;20.368;2022-08-05T03:39:20;20.60;99.30
14798;DHT22;7490;63.708;20.368;2022-08-05T03:41:45;20.60;99.10
14798;DHT22;7490;63.708;20.368;2022-08-05T03:44:11;20.70;99.10
14798;DHT22;7490;63.708;20.368;2022-08-05T03:46:37;20.70;98.90
14798;DHT22;7490;63.708;20.368;2022-08-05T03:49:02;20.80;98.50
14798;DHT22;7490;63.708;20.368;2022-08-05T03:51:35;20.80;98.20
14798;DHT22;7490;63.708;20.368;2022-08-05T03:54:07;20.70;98.00
14798;DHT22;7490;63.708;20.368;2022-08-05T03:56:52;20.70;98.10
14798;DHT22;7490;63.708;20.368;2022-08-05T03:59:32;20.70;98.10
14798;DHT22;7490;63.708;20.368;2022-08-05T04:01:58;20.80;98.20
14798;DHT22;7490;63.708;20.368;2022-08-05T04:04:26;20.90;98.00
14798;DHT22;7490;63.708;20.368;2022-08-05T04:06:52;20.90;98.00
14798;DHT22;7490;63.708;20.368;2022-08-05T04:09:18;21.00;97.50
14798;DHT22;7490;63.708;20.368;2022-08-05T04:11:44;21.00;97.30
14798;DHT22;7490;63.708;20.368;2022-08-05T04:14:10;21.00;97.10
14798;DHT22;7490;63.708;20.368;2022-08-05T04:16:36;20.90;96.80
14798;DHT22;7490;63.708;20.368;2022-08-05T04:19:03;20.90;96.70
14798;DHT22;7490;63.708;20.368;2022-08-05T04:21:28;20.80;96.80
14798;DHT22;7490;63.708;20.368;2022-08-05T04:23:55;20.80;96.90
14798;DHT22;7490;63.708;20.368;2022-08-05T04:26:20;20.70;96.90
14798;DHT22;7490;63.708;20.368;2022-08-05T04:28:46;20.70;96.90
14798;DHT22;7490;63.708;20.368;2022-08-05T04:31:12;20.70;97.00
14798;DHT22;7490;63.708;20.368;2022-08-05T04:33:37;20.70;97.20
14798;DHT22;7490;63.708;20.368;2022-08-05T04:36:03;20.80;97.10
14798;DHT22;7490;63.708;20.368;2022-08-05T04:38:29;20.80;96.80
14798;DHT22;7490;63.708;20.368;2022-08-05T04:40:54;20.70;96.80
14798;DHT22;7490;63.708;20.368;2022-08-05T04:43:20;20.70;96.70
14798;DHT22;7490;63.708;20.368;2022-08-05T04:45:46;20.60;96.70
14798;DHT22;7490;63.708;20.368;2022-08-05T04:48:13;20.60;96.70
14798;DHT22;7490;63.708;20.368;2022-08-05T04:50:44;20.50;96.70
14798;DHT22;7490;63.708;20.368;2022-08-05T04:53:11;20.40;96.80
14798;DHT22;7490;63.708;20.368;2022-08-05T04:55:38;20.40;97.00
14798;DHT22;7490;63.708;20.368;2022-08-05T04:58:05;20.30;97.10
14798;DHT22;7490;63.708;20.368;2022-08-05T05:00:32;20.30;97.20
14798;DHT22;7490;63.708;20.368;2022-08-05T05:02:57;20.30;97.40
14798;DHT22;7490;63.708;20.368;2022-08-05T05:05:23;20.40;97.50
14798;DHT22;7490;63.708;20.368;2022-08-05T05:07:49;20.50;97.30
14798;DHT22;7490;63.708;20.368;2022-08-05T05:10:14;20.50;97.30
14798;DHT22;7490;63.708;20.368;2022-08-05T05:12:40;20.50;97.20
14798;DHT22;7490;63.708;20.368;2022-08-05T05:15:06;20.60;97.20
14798;DHT22;7490;63.708;20.368;2022-08-05T05:17:42;20.70;97.10
14798;DHT22;7490;63.708;20.368;2022-08-05T05:20:12;20.90;97.10
14798;DHT22;7490;63.708;20.368;2022-08-05T05:22:38;21.00;96.60
14798;DHT22;7490;63.708;20.368;2022-08-05T05:25:04;21.10;96.10
14798;DHT22;7490;63.708;20.368;2022-08-05T05:27:31;21.10;95.90
14798;DHT22;7490;63.708;20.368;2022-08-05T05:29:57;21.10;95.70
14798;DHT22;7490;63.708;20.368;2022-08-05T05:32:23;21.10;95.60
14798;DHT22;7490;63.708;20.368;2022-08-05T05:34:49;21.00;95.60
14798;DHT22;7490;63.708;20.368;2022-08-05T05:37:15;21.00;95.60
14798;DHT22;7490;63.708;20.368;2022-08-05T05:39:41;21.00;95.50
14798;DHT22;7490;63.708;20.368;2022-08-05T05:42:06;21.00;95.70
14798;DHT22;7490;63.708;20.368;2022-08-05T05:44:32;21.00;95.90
14798;DHT22;7490;63.708;20.368;2022-08-05T05:46:58;21.00;95.90
14798;DHT22;7490;63.708;20.368;2022-08-05T05:49:25;21.10;95.80
14798;DHT22;7490;63.708;20.368;2022-08-05T05:51:50;21.20;95.70
14798;DHT22;7490;63.708;20.368;2022-08-05T05:54:16;21.50;95.60
14798;DHT22;7490;63.708;20.368;2022-08-05T05:56:42;21.40;95.20
14798;DHT22;7490;63.708;20.368;2022-08-05T05:59:08;21.40;95.00
14798;DHT22;7490;63.708;20.368;2022-08-05T06:01:35;21.40;94.90
14798;DHT22;7490;63.708;20.368;2022-08-05T06:04:01;21.40;94.80
14798;DHT22;7490;63.708;20.368;2022-08-05T06:06:27;21.50;94.70
14798;DHT22;7490;63.708;20.368;2022-08-05T06:08:53;21.40;94.60
14798;DHT22;7490;63.708;20.368;2022-08-05T06:11:18;21.40;94.60
14798;DHT22;7490;63.708;20.368;2022-08-05T06:13:44;21.40;94.50
14798;DHT22;7490;63.708;20.368;2022-08-05T06:16:10;21.40;94.40
14798;DHT22;7490;63.708;20.368;2022-08-05T06:18:35;21.50;94.40
14798;DHT22;7490;63.708;20.368;2022-08-05T06:21:02;21.50;94.40
14798;DHT22;7490;63.708;20.368;2022-08-05T06:23:28;21.50;94.30
14798;DHT22;7490;63.708;20.368;2022-08-05T06:25:54;21.50;95.00
14798;DHT22;7490;63.708;20.368;2022-08-05T06:28:19;22.40;96.20
14798;DHT22;7490;63.708;20.368;2022-08-05T06:30:45;24.00;95.30
14798;DHT22;7490;63.708;20.368;2022-08-05T06:33:11;25.80;92.50
14798;DHT22;7490;63.708;20.368;2022-08-05T06:35:37;27.80;87.90
14798;DHT22;7490;63.708;20.368;2022-08-05T06:38:03;28.80;80.30
14798;DHT22;7490;63.708;20.368;2022-08-05T06:40:28;29.40;75.20
14798;DHT22;7490;63.708;20.368;2022-08-05T06:42:54;29.80;73.00
14798;DHT22;7490;63.708;20.368;2022-08-05T06:45:20;30.20;69.30
14798;DHT22;7490;63.708;20.368;2022-08-05T06:47:46;30.10;68.10
14798;DHT22;7490;63.708;20.368;2022-08-05T06:50:12;30.40;67.70
14798;DHT22;7490;63.708;20.368;2022-08-05T06:52:37;30.70;65.30
14798;DHT22;7490;63.708;20.368;2022-08-05T06:55:04;30.60;63.10
14798;DHT22;7490;63.708;20.368;2022-08-05T06:57:29;30.40;62.70
14798;DHT22;7490;63.708;20.368;2022-08-05T06:59:55;30.10;63.30
14798;DHT22;7490;63.708;20.368;2022-08-05T07:02:21;30.20;63.40
14798;DHT22;7490;63.708;20.368;2022-08-05T07:04:46;30.70;62.70
14798;DHT22;7490;63.708;20.368;2022-08-05T07:07:12;31.10;61.20
14798;DHT22;7490;63.708;20.368;2022-08-05T07:09:38;31.70;59.70
14798;DHT22;7490;63.708;20.368;2022-08-05T07:12:03;32.00;58.10
14798;DHT22;7490;63.708;20.368;2022-08-05T07:14:29;32.20;58.30
14798;DHT22;7490;63.708;20.368;2022-08-05T07:17:13;32.80;57.40
14798;DHT22;7490;63.708;20.368;2022-08-05T07:19:39;33.30;56.30
14798;DHT22;7490;63.708;20.368;2022-08-05T07:22:05;34.00;54.80
14798;DHT22;7490;63.708;20.368;2022-08-05T07:24:30;34.60;53.70
14798;DHT22;7490;63.708;20.368;2022-08-05T07:26:56;35.20;52.40
14798;DHT22;7490;63.708;20.368;2022-08-05T07:29:22;35.40;51.00
14798;DHT22;7490;63.708;20.368;2022-08-05T07:31:47;35.40;50.50
14798;DHT22;7490;63.708;20.368;2022-08-05T07:34:13;34.80;49.70
14798;DHT22;7490;63.708;20.368;2022-08-05T07:36:39;33.90;49.70
14798;DHT22;7490;63.708;20.368;2022-08-05T07:39:06;32.80;50.60
14798;DHT22;7490;63.708;20.368;2022-08-05T07:41:32;31.50;51.80
14798;DHT22;7490;63.708;20.368;2022-08-05T07:43:59;30.40;53.40
14798;DHT22;7490;63.708;20.368;2022-08-05T07:46:28;29.40;54.90
14798;DHT22;7490;63.708;20.368;2022-08-05T07:48:55;28.60;56.70
14798;DHT22;7490;63.708;20.368;2022-08-05T07:51:21;27.90;58.20
14798;DHT22;7490;63.708;20.368;2022-08-05T07:53:47;27.40;59.60
14798;DHT22;7490;63.708;20.368;2022-08-05T07:56:12;27.20;60.90
14798;DHT22;7490;63.708;20.368;2022-08-05T07:58:38;27.30;61.80
14798;DHT22;7490;63.708;20.368;2022-08-05T08:01:04;27.80;62.30
14798;DHT22;7490;63.708;20.368;2022-08-05T08:03:30;28.20;61.00
14798;DHT22;7490;63.708;20.368;2022-08-05T08:05:56;28.20;60.00
14798;DHT22;7490;63.708;20.368;2022-08-05T08:08:21;28.00;60.20
14798;DHT22;7490;63.708;20.368;2022-08-05T08:10:47;27.90;60.50
14798;DHT22;7490;63.708;20.368;2022-08-05T08:13:13;27.80;60.70
14798;DHT22;7490;63.708;20.368;2022-08-05T08:15:39;27.60;61.00
14798;DHT22;7490;63.708;20.368;2022-08-05T08:18:05;27.40;61.60
14798;DHT22;7490;63.708;20.368;2022-08-05T08:20:31;27.20;62.20
14798;DHT22;7490;63.708;20.368;2022-08-05T08:22:58;27.00;63.00
14798;DHT22;7490;63.708;20.368;2022-08-05T08:25:25;26.90;63.60
14798;DHT22;7490;63.708;20.368;2022-08-05T08:27:53;27.00;64.00
14798;DHT22;7490;63.708;20.368;2022-08-05T08:30:18;27.30;64.10
14798;DHT22;7490;63.708;20.368;2022-08-05T08:32:44;27.50;63.40
14798;DHT22;7490;63.708;20.368;2022-08-05T08:35:10;27.50;62.80
14798;DHT22;7490;63.708;20.368;2022-08-05T08:37:36;27.50;62.60
14798;DHT22;7490;63.708;20.368;2022-08-05T08:40:02;27.30;62.80
14798;DHT22;7490;63.708;20.368;2022-08-05T08:42:29;27.00;63.20
14798;DHT22;7490;63.708;20.368;2022-08-05T08:44:56;26.70;63.80
14798;DHT22;7490;63.708;20.368;2022-08-05T08:47:24;26.60;64.90
14798;DHT22;7490;63.708;20.368;2022-08-05T08:49:54;26.50;65.10
14798;DHT22;7490;63.708;20.368;2022-08-05T08:52:28;26.30;65.30
14798;DHT22;7490;63.708;20.368;2022-08-05T08:54:54;26.00;65.80
14798;DHT22;7490;63.708;20.368;2022-08-05T08:57:20;25.70;66.30
14798;DHT22;7490;63.708;20.368;2022-08-05T08:59:47;25.50;67.50
14798;DHT22;7490;63.708;20.368;2022-08-05T09:02:14;25.50;67.70
14798;DHT22;7490;63.708;20.368;2022-08-05T09:04:40;25.40;68.10
14798;DHT22;7490;63.708;20.368;2022-08-05T09:07:07;25.30;68.20
14798;DHT22;7490;63.708;20.368;2022-08-05T09:09:33;25.30;68.50
14798;DHT22;7490;63.708;20.368;2022-08-05T09:12:00;25.30;68.70
14798;DHT22;7490;63.708;20.368;2022-08-05T09:14:26;25.30;68.60
14798;DHT22;7490;63.708;20.368;2022-08-05T09:16:52;25.20;68.80
14798;DHT22;7490;63.708;20.368;2022-08-05T09:19:18;25.10;69.50
14798;DHT22;7490;63.708;20.368;2022-08-05T09:21:44;25.00;69.80
14798;DHT22;7490;63.708;20.368;2022-08-05T09:24:09;25.00;70.30
14798;DHT22;7490;63.708;20.368;2022-08-05T09:26:38;24.90;70.50
14798;DHT22;7490;63.708;20.368;2022-08-05T09:29:07;24.80;70.80
14798;DHT22;7490;63.708;20.368;2022-08-05T09:31:33;24.70;71.20
14798;DHT22;7490;63.708;20.368;2022-08-05T09:34:05;24.70;71.50
14798;DHT22;7490;63.708;20.368;2022-08-05T09:39:12;24.70;71.90
14798;DHT22;7490;63.708;20.368;2022-08-05T09:44:35;24.40;72.50
14798;DHT22;7490;63.708;20.368;2022-08-05T09:47:12;24.30;73.10
14798;DHT22;7490;63.708;20.368;2022-08-05T09:49:41;24.20;73.40
14798;DHT22;7490;63.708;20.368;2022-08-05T09:52:26;24.20;73.90
14798;DHT22;7490;63.708;20.368;2022-08-05T09:57:43;24.60;74.00
14798;DHT22;7490;63.708;20.368;2022-08-05T10:00:19;24.80;73.40
14798;DHT22;7490;63.708;20.368;2022-08-05T10:02:46;24.90;73.20
14798;DHT22;7490;63.708;20.368;2022-08-05T10:05:14;25.00;73.20
14798;DHT22;7490;63.708;20.368;2022-08-05T10:10:20;25.30;71.70
14798;DHT22;7490;63.708;20.368;2022-08-05T10:12:47;25.30;71.60
14798;DHT22;7490;63.708;20.368;2022-08-05T10:17:44;25.30;71.40
14798;DHT22;7490;63.708;20.368;2022-08-05T10:20:11;25.40;71.60
14798;DHT22;7490;63.708;20.368;2022-08-05T10:22:38;25.40;71.20
14798;DHT22;7490;63.708;20.368;2022-08-05T10:25:05;25.30;71.40
14798;DHT22;7490;63.708;20.368;2022-08-05T10:27:31;25.20;71.40
14798;DHT22;7490;63.708;20.368;2022-08-05T10:29:56;25.00;71.80
14798;DHT22;7490;63.708;20.368;2022-08-05T10:32:22;24.90;72.00
14798;DHT22;7490;63.708;20.368;2022-08-05T10:34:48;24.80;72.30
14798;DHT22;7490;63.708;20.368;2022-08-05T10:37:15;24.80;72.80
14798;DHT22;7490;63.708;20.368;2022-08-05T10:39:44;24.70;72.70
14798;DHT22;7490;63.708;20.368;2022-08-05T10:42:15;24.70;73.10
14798;DHT22;7490;63.708;20.368;2022-08-05T10:44:44;24.70;73.10
14798;DHT22;7490;63.708;20.368;2022-08-05T10:47:12;24.70;73.30
14798;DHT22;7490;63.708;20.368;2022-08-05T10:50:03;24.70;73.30
14798;DHT22;7490;63.708;20.368;2022-08-05T10:52:45;24.90;73.40
14798;DHT22;7490;63.708;20.368;2022-08-05T10:55:17;25.20;73.00
14798;DHT22;7490;63.708;20.368;2022-08-05T10:57:44;25.40;72.30
14798;DHT22;7490;63.708;20.368;2022-08-05T11:02:36;25.60;71.60
14798;DHT22;7490;63.708;20.368;2022-08-05T11:05:08;25.60;71.10
14798;DHT22;7490;63.708;20.368;2022-08-05T11:07:34;25.60;71.10
14798;DHT22;7490;63.708;20.368;2022-08-05T11:10:24;25.80;71.20
14798;DHT22;7490;63.708;20.368;2022-08-05T11:12:50;25.90;70.40
14798;DHT22;7490;63.708;20.368;2022-08-05T11:17:46;26.10;69.50
14798;DHT22;7490;63.708;20.368;2022-08-05T11:20:45;26.00;69.30
14798;DHT22;7490;63.708;20.368;2022-08-05T11:23:50;25.90;69.70
14798;DHT22;7490;63.708;20.368;2022-08-05T11:28:48;25.90;70.50
14798;DHT22;7490;63.708;20.368;2022-08-05T11:36:21;26.10;69.70
14798;DHT22;7490;63.708;20.368;2022-08-05T11:39:03;26.10;69.40
14798;DHT22;7490;63.708;20.368;2022-08-05T11:41:29;26.10;69.00
14798;DHT22;7490;63.708;20.368;2022-08-05T11:44:03;26.00;69.20
14798;DHT22;7490;63.708;20.368;2022-08-05T11:46:31;25.90;69.10
14798;DHT22;7490;63.708;20.368;2022-08-05T11:48:59;25.80;69.80
14798;DHT22;7490;63.708;20.368;2022-08-05T11:51:26;25.70;70.20
14798;DHT22;7490;63.708;20.368;2022-08-05T11:53:52;25.70;70.40
14798;DHT22;7490;63.708;20.368;2022-08-05T11:56:19;25.70;70.60
14798;DHT22;7490;63.708;20.368;2022-08-05T11:58:46;25.70;70.30
14798;DHT22;7490;63.708;20.368;2022-08-05T12:01:20;25.60;70.40
14798;DHT22;7490;63.708;20.368;2022-08-05T12:03:54;25.60;71.40
14798;DHT22;7490;63.708;20.368;2022-08-05T12:06:25;25.70;71.40
14798;DHT22;7490;63.708;20.368;2022-08-05T12:08:57;25.80;71.10
14798;DHT22;7490;63.708;20.368;2022-08-05T12:11:27;25.80;70.70
14798;DHT22;7490;63.708;20.368;2022-08-05T12:13:57;25.70;70.90
14798;DHT22;7490;63.708;20.368;2022-08-05T12:16:24;25.60;71.20
14798;DHT22;7490;63.708;20.368;2022-08-05T12:18:50;25.50;71.20
14798;DHT22;7490;63.708;20.368;2022-08-05T12:24:13;25.30;71.70
14798;DHT22;7490;63.708;20.368;2022-08-05T12:29:14;25.20;71.80
14798;DHT22;7490;63.708;20.368;2022-08-05T12:31:47;25.20;71.70
14798;DHT22;7490;63.708;20.368;2022-08-05T12:34:14;25.00;72.00
14798;DHT22;7490;63.708;20.368;2022-08-05T12:36:41;24.90;72.30
14798;DHT22;7490;63.708;20.368;2022-08-05T12:39:07;24.80;72.40
14798;DHT22;7490;63.708;20.368;2022-08-05T12:41:35;24.70;73.00
14798;DHT22;7490;63.708;20.368;2022-08-05T12:44:10;24.80;73.90
14798;DHT22;7490;63.708;20.368;2022-08-05T12:46:39;24.90;73.90
14798;DHT22;7490;63.708;20.368;2022-08-05T12:49:08;25.10;73.40
14798;DHT22;7490;63.708;20.368;2022-08-05T12:51:57;25.10;72.80
14798;DHT22;7490;63.708;20.368;2022-08-05T12:54:28;25.10;73.00
14798;DHT22;7490;63.708;20.368;2022-08-05T12:57:00;25.10;73.00
14798;DHT22;7490;63.708;20.368;2022-08-05T12:59:27;25.10;73.10
14798;DHT22;7490;63.708;20.368;2022-08-05T13:01:59;25.10;73.40
14798;DHT22;7490;63.708;20.368;2022-08-05T13:04:31;25.20;73.60
14798;DHT22;7490;63.708;20.368;2022-08-05T13:06:58;25.20;73.50
14798;DHT22;7490;63.708;20.368;2022-08-05T13:09:25;25.20;72.90
14798;DHT22;7490;63.708;20.368;2022-08-05T13:12:02;25.20;72.80
14798;DHT22;7490;63.708;20.368;2022-08-05T13:14:34;25.10;72.80
14798;DHT22;7490;63.708;20.368;2022-08-05T13:17:00;25.00;73.20
14798;DHT22;7490;63.708;20.368;2022-08-05T13:19:27;24.90;73.30
14798;DHT22;7490;63.708;20.368;2022-08-05T13:21:54;24.90;73.70
14798;DHT22;7490;63.708;20.368;2022-08-05T13:24:22;24.80;73.60
14798;DHT22;7490;63.708;20.368;2022-08-05T13:26:50;24.70;73.60
14798;DHT22;7490;63.708;20.368;2022-08-05T13:29:15;24.50;73.80
14798;DHT22;7490;63.708;20.368;2022-08-05T13:31:42;24.20;74.30
14798;DHT22;7490;63.708;20.368;2022-08-05T13:34:09;24.00;74.70
14798;DHT22;7490;63.708;20.368;2022-08-05T13:36:35;23.80;75.70
14798;DHT22;7490;63.708;20.368;2022-08-05T13:39:02;23.70;76.50
14798;DHT22;7490;63.708;20.368;2022-08-05T13:41:29;23.60;76.80
14798;DHT22;7490;63.708;20.368;2022-08-05T13:43:54;23.60;76.90
14798;DHT22;7490;63.708;20.368;2022-08-05T13:46:24;23.50;77.20
14798;DHT22;7490;63.708;20.368;2022-08-05T13:48:49;23.50;77.50
14798;DHT22;7490;63.708;20.368;2022-08-05T13:51:15;23.50;77.70
14798;DHT22;7490;63.708;20.368;2022-08-05T13:53:49;23.50;77.70
14798;DHT22;7490;63.708;20.368;2022-08-05T13:56:15;23.60;77.90
14798;DHT22;7490;63.708;20.368;2022-08-05T13:58:41;23.60;77.90
14798;DHT22;7490;63.708;20.368;2022-08-05T14:01:06;23.60;78.20
14798;DHT22;7490;63.708;20.368;2022-08-05T14:03:32;23.70;78.20
14798;DHT22;7490;63.708;20.368;2022-08-05T14:05:58;23.70;77.90
14798;DHT22;7490;63.708;20.368;2022-08-05T14:08:23;23.60;78.00
14798;DHT22;7490;63.708;20.368;2022-08-05T14:10:49;23.50;78.30
14798;DHT22;7490;63.708;20.368;2022-08-05T14:13:15;23.50;78.40
14798;DHT22;7490;63.708;20.368;2022-08-05T14:15:41;23.50;78.30
14798;DHT22;7490;63.708;20.368;2022-08-05T14:18:06;23.40;78.60
14798;DHT22;7490;63.708;20.368;2022-08-05T14:20:32;23.40;78.60
14798;DHT22;7490;63.708;20.368;2022-08-05T14:22:58;23.40;78.90
14798;DHT22;7490;63.708;20.368;2022-08-05T14:25:25;23.40;79.10
14798;DHT22;7490;63.708;20.368;2022-08-05T14:27:51;23.40;79.10
14798;DHT22;7490;63.708;20.368;2022-08-05T14:30:17;23.50;79.20
14798;DHT22;7490;63.708;20.368;2022-08-05T14:32:43;23.50;79.00
14798;DHT22;7490;63.708;20.368;2022-08-05T14:35:09;23.50;78.70
14798;DHT22;7490;63.708;20.368;2022-08-05T14:37:37;23.50;78.50
14798;DHT22;7490;63.708;20.368;2022-08-05T14:40:03;23.50;78.20
14798;DHT22;7490;63.708;20.368;2022-08-05T14:42:29;23.50;78.20
14798;DHT22;7490;63.708;20.368;2022-08-05T14:44:55;23.40;78.20
14798;DHT22;7490;63.708;20.368;2022-08-05T14:47:21;23.40;78.50
14798;DHT22;7490;63.708;20.368;2022-08-05T14:49:46;23.40;78.50
14798;DHT22;7490;63.708;20.368;2022-08-05T14:52:12;23.30;78.50
14798;DHT22;7490;63.708;20.368;2022-08-05T14:54:38;23.40;78.70
14798;DHT22;7490;63.708;20.368;2022-08-05T14:57:04;23.40;78.70
14798;DHT22;7490;63.708;20.368;2022-08-05T14:59:30;23.30;78.70
14798;DHT22;7490;63.708;20.368;2022-08-05T15:01:56;23.30;78.80
14798;DHT22;7490;63.708;20.368;2022-08-05T15:04:22;23.20;79.00
14798;DHT22;7490;63.708;20.368;2022-08-05T15:06:49;23.20;79.40
14798;DHT22;7490;63.708;20.368;2022-08-05T15:09:14;23.20;79.40
14798;DHT22;7490;63.708;20.368;2022-08-05T15:11:40;23.40;79.70
14798;DHT22;7490;63.708;20.368;2022-08-05T15:14:06;23.10;79.60
14798;DHT22;7490;63.708;20.368;2022-08-05T15:16:31;23.10;79.60
14798;DHT22;7490;63.708;20.368;2022-08-05T15:18:57;23.00;79.50
14798;DHT22;7490;63.708;20.368;2022-08-05T15:21:23;22.90;79.60
14798;DHT22;7490;63.708;20.368;2022-08-05T15:23:48;22.90;79.90
14798;DHT22;7490;63.708;20.368;2022-08-05T15:26:14;22.80;80.10
14798;DHT22;7490;63.708;20.368;2022-08-05T15:28:42;22.70;80.50
14798;DHT22;7490;63.708;20.368;2022-08-05T15:31:08;22.70;80.90
14798;DHT22;7490;63.708;20.368;2022-08-05T15:33:34;22.60;81.20
14798;DHT22;7490;63.708;20.368;2022-08-05T15:36:00;22.50;81.50
14798;DHT22;7490;63.708;20.368;2022-08-05T15:38:26;22.50;81.90
14798;DHT22;7490;63.708;20.368;2022-08-05T15:40:52;22.40;82.00
14798;DHT22;7490;63.708;20.368;2022-08-05T15:43:17;22.40;82.00
14798;DHT22;7490;63.708;20.368;2022-08-05T15:45:44;22.40;82.10
14798;DHT22;7490;63.708;20.368;2022-08-05T15:48:10;22.40;82.10
14798;DHT22;7490;63.708;20.368;2022-08-05T15:50:35;22.40;82.10
14798;DHT22;7490;63.708;20.368;2022-08-05T15:53:01;22.40;82.20
14798;DHT22;7490;63.708;20.368;2022-08-05T15:55:27;22.40;82.10
14798;DHT22;7490;63.708;20.368;2022-08-05T15:57:53;22.40;82.00
14798;DHT22;7490;63.708;20.368;2022-08-05T16:00:19;22.40;82.10
14798;DHT22;7490;63.708;20.368;2022-08-05T16:02:44;22.40;82.00
14798;DHT22;7490;63.708;20.368;2022-08-05T16:05:10;22.40;81.70
14798;DHT22;7490;63.708;20.368;2022-08-05T16:07:36;22.40;81.50
14798;DHT22;7490;63.708;20.368;2022-08-05T16:10:03;22.30;81.40
14798;DHT22;7490;63.708;20.368;2022-08-05T16:12:29;22.30;81.50
14798;DHT22;7490;63.708;20.368;2022-08-05T16:14:54;22.20;81.70